createdAt,value
2018-04-19T00:02:02.144Z,9.60
2018-04-19T00:04:30.920Z,9.70
2018-04-19T00:06:59.506Z,9.60
2018-04-19T00:09:28.188Z,9.60
2018-04-19T00:11:56.026Z,9.60
2018-04-19T00:14:23.722Z,9.60
2018-04-19T00:16:51.378Z,9.60
2018-04-19T00:19:18.899Z,9.60
2018-04-19T00:21:47.501Z,9.60
2018-04-19T00:24:15.017Z,9.60
2018-04-19T00:26:42.555Z,9.60
2018-04-19T00:29:10.094Z,9.60
2018-04-19T00:31:37.656Z,9.60
2018-04-19T00:34:05.677Z,9.60
2018-04-19T00:36:33.525Z,9.60
2018-04-19T00:39:01.332Z,9.50
2018-04-19T00:41:29.179Z,9.50
2018-04-19T00:43:56.746Z,9.50
2018-04-19T00:46:24.565Z,9.50
2018-04-19T00:48:53.369Z,9.50
2018-04-19T00:51:21.166Z,9.50
2018-04-19T00:53:48.939Z,9.50
2018-04-19T00:56:16.888Z,9.50
2018-04-19T00:58:44.734Z,9.40
2018-04-19T01:01:13.016Z,9.40
2018-04-19T01:03:41.360Z,9.40
2018-04-19T01:06:09.188Z,9.40
2018-04-19T01:08:36.729Z,9.40
2018-04-19T01:11:05.209Z,9.40
2018-04-19T01:13:33.506Z,9.30
2018-04-19T01:16:01.027Z,9.30
2018-04-19T01:18:28.813Z,9.30
2018-04-19T01:20:56.604Z,9.30
2018-04-19T01:23:25.109Z,9.30
2018-04-19T01:25:52.676Z,9.20
2018-04-19T01:28:20.537Z,9.20
2018-04-19T01:30:48.064Z,9.20
2018-04-19T01:33:15.856Z,9.20
2018-04-19T01:35:56.284Z,9.10
2018-04-19T01:38:24.318Z,9.10
2018-04-19T01:40:52.072Z,9.10
2018-04-19T01:43:19.839Z,9.10
2018-04-19T01:45:47.727Z,9.00
2018-04-19T01:48:15.643Z,9.00
2018-04-19T01:50:43.430Z,9.00
2018-04-19T01:53:10.997Z,9.00
2018-04-19T01:55:38.599Z,8.90
2018-04-19T01:58:06.187Z,8.90
2018-04-19T02:00:33.728Z,8.90
2018-04-19T02:03:01.583Z,8.90
2018-04-19T02:05:29.360Z,8.80
2018-04-19T02:07:57.812Z,8.80
2018-04-19T02:10:25.663Z,8.80
2018-04-19T02:12:53.196Z,8.80
2018-04-19T02:15:20.869Z,8.70
2018-04-19T02:17:49.298Z,8.70
2018-04-19T02:20:17.877Z,8.70
2018-04-19T02:22:46.726Z,8.70
2018-04-19T02:25:14.598Z,8.70
2018-04-19T02:27:42.350Z,8.60
2018-04-19T02:30:10.193Z,8.60
2018-04-19T02:32:37.991Z,8.60
2018-04-19T02:35:05.851Z,8.60
2018-04-19T02:37:34.466Z,8.60
2018-04-19T02:40:02.406Z,8.60
2018-04-19T02:42:30.980Z,8.50
2018-04-19T02:44:59.575Z,8.50
2018-04-19T02:47:28.151Z,8.50
2018-04-19T02:49:56.842Z,8.50
2018-04-19T02:52:24.449Z,8.50
2018-04-19T02:54:52.280Z,8.50
2018-04-19T02:57:20.174Z,8.40
2018-04-19T02:59:48.791Z,8.40
2018-04-19T03:02:16.662Z,8.40
2018-04-19T03:04:44.195Z,8.40
2018-04-19T03:07:12.634Z,8.30
2018-04-19T03:09:41.055Z,8.30
2018-04-19T03:12:09.633Z,8.30
2018-04-19T03:14:38.906Z,8.20
2018-04-19T03:17:06.743Z,8.20
2018-04-19T03:19:34.670Z,8.20
2018-04-19T03:22:02.208Z,8.20
2018-04-19T03:24:30.988Z,8.20
2018-04-19T03:26:58.848Z,8.20
2018-04-19T03:29:27.141Z,8.10
2018-04-19T03:31:54.933Z,8.10
2018-04-19T03:34:22.721Z,8.10
2018-04-19T03:36:51.422Z,8.10
2018-04-19T03:39:20.118Z,8.10
2018-04-19T03:41:47.663Z,8.10
2018-04-19T03:44:16.210Z,8.10
2018-04-19T03:46:43.806Z,8.10
2018-04-19T03:49:12.048Z,8.10
2018-04-19T03:51:40.014Z,8.10
2018-04-19T03:54:07.891Z,8.10
2018-04-19T03:56:35.766Z,8.10
2018-04-19T03:59:03.651Z,8.10
2018-04-19T04:01:31.521Z,8.20
2018-04-19T04:03:59.349Z,8.20
2018-04-19T04:06:27.713Z,8.30
2018-04-19T04:08:55.332Z,8.40
2018-04-19T04:11:22.934Z,8.50
2018-04-19T04:13:50.733Z,8.70
2018-04-19T04:16:30.227Z,8.90
2018-04-19T04:19:09.766Z,9.10
2018-04-19T04:21:49.408Z,9.40
2018-04-19T04:24:17.256Z,9.70
2018-04-19T04:26:45.102Z,10.10
2018-04-19T04:29:13.346Z,10.40
2018-04-19T04:31:40.863Z,10.80
2018-04-19T04:34:08.399Z,11.20
2018-04-19T04:36:36.165Z,11.60
2018-04-19T04:39:03.757Z,11.90
2018-04-19T04:41:32.422Z,12.60
2018-04-19T04:44:00.015Z,12.60
2018-04-19T04:46:27.562Z,12.90
2018-04-19T04:48:56.185Z,13.30
2018-04-19T04:51:24.010Z,13.30
2018-04-19T04:53:52.589Z,13.70
2018-04-19T04:56:21.694Z,13.80
2018-04-19T04:58:49.983Z,14.00
2018-04-19T05:01:17.534Z,13.90
2018-04-19T05:03:46.970Z,14.20
2018-04-19T05:06:15.271Z,14.30
2018-04-19T05:08:43.152Z,14.20
2018-04-19T05:11:11.171Z,14.30
2018-04-19T05:13:40.448Z,14.40
2018-04-19T05:16:08.046Z,14.40
2018-04-19T05:18:35.912Z,14.40
2018-04-19T05:21:03.470Z,14.40
2018-04-19T05:23:31.308Z,14.40
2018-04-19T05:25:59.274Z,14.40
2018-04-19T05:28:28.152Z,14.30
2018-04-19T05:30:56.720Z,14.40
2018-04-19T05:33:24.540Z,14.40
2018-04-19T05:35:52.896Z,14.50
2018-04-19T05:38:20.559Z,14.50
2018-04-19T05:40:49.141Z,14.80
2018-04-19T05:43:17.824Z,14.90
2018-04-19T05:45:46.568Z,14.90
2018-04-19T05:48:14.484Z,14.90
2018-04-19T05:50:43.111Z,15.20
2018-04-19T05:53:10.944Z,15.20
2018-04-19T05:55:39.258Z,15.70
2018-04-19T05:58:06.813Z,15.70
2018-04-19T06:00:34.623Z,16.10
2018-04-19T06:03:02.206Z,16.50
2018-04-19T06:05:30.550Z,17.40
2018-04-19T06:07:58.415Z,17.40
2018-04-19T06:10:26.128Z,17.90
2018-04-19T06:12:54.132Z,18.30
2018-04-19T06:15:23.260Z,19.00
2018-04-19T06:17:51.201Z,19.00
2018-04-19T06:20:19.760Z,19.30
2018-04-19T06:22:48.192Z,19.30
2018-04-19T06:25:16.605Z,19.40
2018-04-19T06:27:44.238Z,19.60
2018-04-19T06:30:11.868Z,19.80
2018-04-19T06:32:40.124Z,20.10
2018-04-19T06:35:09.265Z,21.00
2018-04-19T06:37:37.956Z,21.40
2018-04-19T06:42:37.668Z,22.00
2018-04-19T06:45:06.153Z,22.50
2018-04-19T06:47:33.980Z,23.10
2018-04-19T06:50:01.943Z,23.60
2018-04-19T06:52:29.806Z,24.10
2018-04-19T06:54:58.157Z,25.10
2018-04-19T06:57:26.205Z,25.10
2018-04-19T06:59:54.129Z,25.50
2018-04-19T07:02:22.460Z,26.50
2018-04-19T07:04:50.010Z,26.40
2018-04-19T07:07:17.802Z,26.80
2018-04-19T07:09:45.624Z,27.10
2018-04-19T07:12:14.196Z,27.30
2018-04-19T07:14:43.044Z,27.40
2018-04-19T07:17:10.707Z,27.40
2018-04-19T07:19:38.734Z,27.40
2018-04-19T07:22:07.363Z,27.40
2018-04-19T07:24:35.301Z,27.40
2018-04-19T07:27:04.096Z,27.30
2018-04-19T07:29:32.790Z,27.10
2018-04-19T07:32:01.532Z,26.90
2018-04-19T07:34:29.343Z,26.90
2018-04-19T07:36:57.258Z,26.70
2018-04-19T07:39:25.084Z,26.50
2018-04-19T07:41:53.202Z,26.30
2018-04-19T07:44:21.023Z,26.10
2018-04-19T07:46:49.383Z,25.90
2018-04-19T07:49:16.960Z,25.80
2018-04-19T07:51:44.753Z,25.60
2018-04-19T07:54:13.968Z,25.30
2018-04-19T07:56:42.374Z,25.10
2018-04-19T07:59:10.213Z,25.10
2018-04-19T08:01:38.611Z,24.80
2018-04-19T08:04:07.387Z,24.80
2018-04-19T08:06:36.012Z,24.50
2018-04-19T08:09:03.700Z,24.50
2018-04-19T08:11:31.287Z,24.40
2018-04-19T08:13:58.842Z,24.30
2018-04-19T08:16:26.800Z,24.20
2018-04-19T08:18:54.864Z,24.20
2018-04-19T08:21:22.419Z,24.00
2018-04-19T08:23:50.016Z,24.00
2018-04-19T08:26:17.722Z,23.90
2018-04-19T08:28:46.516Z,23.90
2018-04-19T08:31:15.100Z,23.80
2018-04-19T08:33:43.688Z,23.70
2018-04-19T08:36:12.386Z,23.70
2018-04-19T08:38:41.685Z,23.60
2018-04-19T08:41:10.923Z,23.60
2018-04-19T08:43:39.680Z,23.60
2018-04-19T08:46:08.314Z,23.40
2018-04-19T08:48:35.865Z,23.40
2018-04-19T08:51:03.524Z,23.40
2018-04-19T08:53:31.369Z,23.30
2018-04-19T08:55:59.963Z,23.20
2018-04-19T08:58:27.692Z,23.20
2018-04-19T09:00:55.277Z,23.20
2018-04-19T09:03:23.164Z,23.10
2018-04-19T09:05:51.752Z,22.90
2018-04-19T09:08:20.444Z,22.80
2018-04-19T09:10:48.368Z,22.80
2018-04-19T09:13:15.921Z,22.70
2018-04-19T09:15:44.020Z,22.60
2018-04-19T09:18:12.444Z,22.50
2018-04-19T09:20:40.268Z,22.40
2018-04-19T09:23:08.095Z,22.30
2018-04-19T09:25:36.661Z,22.10
2018-04-19T09:28:04.472Z,22.00
2018-04-19T09:30:32.049Z,22.00
2018-04-19T09:32:59.854Z,21.80
2018-04-19T09:35:27.675Z,21.70
2018-04-19T09:37:55.457Z,21.60
2018-04-19T09:40:23.016Z,21.60
2018-04-19T09:42:50.615Z,21.40
2018-04-19T09:45:18.426Z,21.40
2018-04-19T09:47:47.082Z,21.30
2018-04-19T09:50:14.933Z,21.20
2018-04-19T09:52:43.568Z,21.20
2018-04-19T09:55:12.077Z,21.00
2018-04-19T09:57:39.632Z,21.00
2018-04-19T10:00:07.953Z,20.90
2018-04-19T10:02:35.864Z,20.90
2018-04-19T10:05:03.873Z,20.90
2018-04-19T10:07:31.724Z,20.90
2018-04-19T10:10:00.513Z,20.80
2018-04-19T10:12:28.452Z,20.70
2018-04-19T10:14:56.009Z,20.70
2018-04-19T10:17:24.384Z,20.60
2018-04-19T10:19:52.310Z,20.60
2018-04-19T10:22:21.872Z,20.50
2018-04-19T10:24:49.787Z,20.50
2018-04-19T10:27:18.463Z,20.40
2018-04-19T10:29:47.781Z,20.20
2018-04-19T10:32:15.684Z,20.30
2018-04-19T10:34:43.232Z,20.20
2018-04-19T10:37:11.826Z,20.10
2018-04-19T10:39:39.784Z,20.10
2018-04-19T10:42:08.576Z,20.00
2018-04-19T10:44:37.199Z,20.00
2018-04-19T10:47:05.023Z,19.90
2018-04-19T10:49:32.869Z,19.90
2018-04-19T10:52:00.663Z,19.90
2018-04-19T10:54:28.475Z,19.90
2018-04-19T10:56:56.300Z,19.90
2018-04-19T10:59:23.918Z,19.90
2018-04-19T11:01:51.728Z,19.80
2018-04-19T11:04:19.276Z,19.80
2018-04-19T11:06:47.082Z,19.80
2018-04-19T11:09:14.923Z,19.80
2018-04-19T11:11:43.264Z,19.80
2018-04-19T11:14:11.092Z,19.80
2018-04-19T11:16:40.576Z,19.70
2018-04-19T11:19:08.488Z,19.70
2018-04-19T11:21:37.049Z,19.70
2018-04-19T11:24:04.821Z,19.70
2018-04-19T11:26:32.651Z,19.70
2018-04-19T11:29:00.447Z,19.70
2018-04-19T11:31:28.723Z,19.70
2018-04-19T11:33:56.392Z,19.70
2018-04-19T11:36:24.254Z,19.70
2018-04-19T11:38:52.068Z,19.70
2018-04-19T11:41:19.758Z,19.70
2018-04-19T11:43:48.362Z,19.70
2018-04-19T11:46:16.148Z,19.60
2018-04-19T11:48:44.031Z,19.70
2018-04-19T11:51:11.896Z,19.70
2018-04-19T11:53:39.678Z,19.70
2018-04-19T11:56:07.436Z,19.70
2018-04-19T11:58:35.325Z,19.70
2018-04-19T12:01:03.528Z,19.70
2018-04-19T12:03:32.357Z,19.70
2018-04-19T12:06:00.179Z,19.60
2018-04-19T12:08:28.600Z,19.70
2018-04-19T12:10:56.936Z,19.60
2018-04-19T12:13:24.767Z,19.60
2018-04-19T12:15:52.560Z,19.60
2018-04-19T12:18:20.171Z,19.60
2018-04-19T12:20:47.721Z,19.60
2018-04-19T12:23:15.543Z,19.60
2018-04-19T12:25:44.044Z,19.60
2018-04-19T12:28:11.605Z,19.60
2018-04-19T12:30:39.355Z,19.60
2018-04-19T12:33:07.208Z,19.70
2018-04-19T12:35:35.779Z,19.70
2018-04-19T12:38:04.381Z,19.70
2018-04-19T12:40:32.248Z,19.70
2018-04-19T12:43:00.843Z,19.70
2018-04-19T12:45:29.641Z,19.70
2018-04-19T12:47:58.188Z,19.70
2018-04-19T12:50:25.969Z,19.70
2018-04-19T12:52:53.786Z,19.70
2018-04-19T12:55:21.624Z,19.80
2018-04-19T12:57:49.450Z,19.80
2018-04-19T13:00:17.183Z,19.80
2018-04-19T13:02:45.046Z,19.90
2018-04-19T13:05:13.730Z,19.90
2018-04-19T13:07:42.321Z,20.00
2018-04-19T13:10:10.646Z,20.00
2018-04-19T13:12:38.239Z,20.00
2018-04-19T13:15:05.976Z,20.00
2018-04-19T13:17:33.903Z,20.00
2018-04-19T13:20:02.596Z,20.10
2018-04-19T13:22:31.324Z,20.10
2018-04-19T13:25:00.076Z,20.00
2018-04-19T13:27:28.876Z,20.00
2018-04-19T13:29:56.478Z,20.00
2018-04-19T13:32:24.364Z,20.10
2018-04-19T13:34:52.056Z,20.10
2018-04-19T13:37:20.394Z,20.10
2018-04-19T13:39:48.375Z,20.10
2018-04-19T13:42:16.075Z,20.10
2018-04-19T13:44:43.626Z,20.20
2018-04-19T13:47:13.115Z,20.20
2018-04-19T13:49:40.932Z,20.20
2018-04-19T13:52:08.511Z,20.20
2018-04-19T13:54:36.832Z,20.20
2018-04-19T13:57:04.653Z,20.10
2018-04-19T13:59:32.480Z,20.10
2018-04-19T14:02:00.313Z,20.10
2018-04-19T14:04:29.679Z,20.10
2018-04-19T14:06:57.502Z,20.10
2018-04-19T14:09:25.694Z,20.10
2018-04-19T14:11:53.489Z,20.20
2018-04-19T14:14:21.269Z,20.10
2018-04-19T14:16:49.072Z,20.20
2018-04-19T14:19:17.823Z,20.20
2018-04-19T14:21:45.446Z,20.20
2018-04-19T14:24:13.212Z,20.20
2018-04-19T14:26:41.903Z,20.20
2018-04-19T14:29:10.216Z,20.20
2018-04-19T14:31:38.048Z,20.20
2018-04-19T14:34:06.634Z,20.20
2018-04-19T14:36:35.258Z,20.20
2018-04-19T14:39:03.091Z,20.20
2018-04-19T14:41:30.673Z,20.20
2018-04-19T14:43:59.280Z,20.20
2018-04-19T14:46:28.073Z,20.20
2018-04-19T14:48:55.624Z,20.20
2018-04-19T14:51:23.176Z,20.20
2018-04-19T14:53:51.040Z,20.20
2018-04-19T14:56:19.739Z,20.20
2018-04-19T14:58:48.780Z,20.20
2018-04-19T15:01:16.704Z,20.10
2018-04-19T15:03:45.387Z,20.10
2018-04-19T15:06:13.709Z,20.10
2018-04-19T15:08:41.412Z,20.10
2018-04-19T15:11:09.240Z,20.10
2018-04-19T15:13:37.088Z,20.10
2018-04-19T15:16:05.672Z,20.10
2018-04-19T15:18:33.988Z,20.10
2018-04-19T15:21:02.116Z,20.10
2018-04-19T15:23:30.575Z,20.10
2018-04-19T15:25:58.424Z,20.10
2018-04-19T15:28:26.356Z,20.00
2018-04-19T15:30:54.956Z,20.00
2018-04-19T15:33:22.543Z,20.00
2018-04-19T15:35:51.300Z,20.00
2018-04-19T15:38:19.237Z,20.00
2018-04-19T15:40:46.806Z,20.00
2018-04-19T15:43:14.713Z,20.00
2018-04-19T15:45:43.408Z,19.90
2018-04-19T15:48:12.097Z,20.00
2018-04-19T15:50:40.822Z,20.20
2018-04-19T15:53:08.636Z,20.20
2018-04-19T15:55:36.469Z,20.30
2018-04-19T15:58:04.249Z,20.30
2018-04-19T16:00:32.057Z,20.30
2018-04-19T16:03:00.647Z,20.30
2018-04-19T16:05:28.204Z,20.30
2018-04-19T16:07:56.836Z,20.20
2018-04-19T16:10:24.616Z,20.20
2018-04-19T16:12:52.420Z,20.20
2018-04-19T16:15:19.990Z,20.10
2018-04-19T16:17:47.596Z,20.00
2018-04-19T16:20:15.474Z,19.90
2018-04-19T16:22:43.035Z,19.90
2018-04-19T16:25:10.780Z,19.90
2018-04-19T16:27:39.823Z,19.70
2018-04-19T16:30:07.656Z,19.70
2018-04-19T16:32:36.274Z,19.70
2018-04-19T16:35:04.120Z,19.70
2018-04-19T16:37:32.487Z,19.80
2018-04-19T16:40:00.023Z,19.80
2018-04-19T16:42:28.377Z,19.90
2018-04-19T16:44:56.178Z,19.90
2018-04-19T16:47:24.147Z,20.00
2018-04-19T16:49:51.664Z,20.00
2018-04-19T16:52:19.389Z,20.00
2018-04-19T16:54:47.068Z,19.90
2018-04-19T16:57:14.728Z,19.70
2018-04-19T16:59:42.623Z,19.60
2018-04-19T17:02:10.543Z,19.40
2018-04-19T17:04:38.102Z,19.30
2018-04-19T17:07:05.971Z,19.20
2018-04-19T17:09:33.531Z,19.10
2018-04-19T17:12:01.469Z,19.10
2018-04-19T17:14:30.186Z,18.90
2018-04-19T17:16:58.036Z,18.90
2018-04-19T17:19:26.831Z,18.80
2018-04-19T17:21:55.733Z,18.80
2018-04-19T17:24:24.304Z,18.70
2018-04-19T17:26:52.965Z,18.70
2018-04-19T17:29:20.780Z,18.70
2018-04-19T17:31:48.657Z,18.60
2018-04-19T17:34:16.452Z,18.60
2018-04-19T17:36:44.237Z,18.60
2018-04-19T17:39:12.257Z,18.50
2018-04-19T17:41:41.081Z,18.40
2018-04-19T17:44:08.924Z,18.40
2018-04-19T17:46:36.737Z,18.40
2018-04-19T17:49:04.603Z,18.30
2018-04-19T17:51:32.444Z,18.30
2018-04-19T17:54:01.024Z,18.70
2018-04-19T17:56:29.504Z,18.10
2018-04-19T17:58:58.131Z,18.00
2018-04-19T18:01:25.820Z,18.00
2018-04-19T18:03:53.631Z,17.90
2018-04-19T18:06:22.224Z,17.80
2018-04-19T18:08:50.835Z,17.70
2018-04-19T18:11:19.131Z,17.70
2018-04-19T18:13:46.982Z,17.60
2018-04-19T18:16:14.822Z,17.60
2018-04-19T18:18:42.684Z,17.50
2018-04-19T18:21:10.568Z,17.40
2018-04-19T18:23:38.446Z,16.80
2018-04-19T18:26:06.256Z,17.20
2018-04-19T18:28:34.071Z,17.20
2018-04-19T18:31:01.857Z,17.10
2018-04-19T18:33:30.455Z,16.90
2018-04-19T18:35:58.768Z,16.80
2018-04-19T18:38:26.768Z,16.80
2018-04-19T18:40:54.603Z,16.80
2018-04-19T18:43:22.416Z,16.70
2018-04-19T18:45:50.236Z,16.60
2018-04-19T18:48:18.144Z,16.50
2018-04-19T18:50:45.725Z,16.50
2018-04-19T18:53:13.549Z,16.40
2018-04-19T18:55:41.429Z,16.30
2018-04-19T18:58:09.248Z,16.20
2018-04-19T19:00:37.036Z,16.10
2018-04-19T19:03:05.593Z,16.00
2018-04-19T19:05:33.964Z,15.90
2018-04-19T19:08:01.781Z,15.90
2018-04-19T19:10:29.696Z,15.80
2018-04-19T19:12:57.255Z,15.80
2018-04-19T19:18:44.537Z,16.70
2018-04-19T19:21:13.226Z,15.40
2018-04-19T19:23:41.934Z,15.40
2018-04-19T19:26:09.791Z,15.30
2018-04-19T19:28:38.484Z,15.20
2018-04-19T19:31:07.270Z,15.20
2018-04-19T19:33:35.964Z,15.10
2018-04-19T19:36:04.860Z,15.00
2018-04-19T19:38:33.532Z,15.00
2018-04-19T19:41:01.360Z,14.90
2018-04-19T19:43:28.908Z,14.90
2018-04-19T19:45:56.715Z,14.80
2018-04-19T19:48:24.265Z,14.80
2018-04-19T19:50:52.846Z,14.70
2018-04-19T19:53:20.731Z,14.70
2018-04-19T19:55:48.276Z,14.70
2018-04-19T19:58:16.536Z,14.60
2018-04-19T20:00:44.368Z,14.60
2018-04-19T20:03:12.144Z,14.50
2018-04-19T20:05:39.953Z,14.40
2018-04-19T20:08:07.738Z,14.40
2018-04-19T20:10:35.561Z,14.30
2018-04-19T20:13:03.386Z,14.20
2018-04-19T20:15:31.316Z,14.20
2018-04-19T20:17:59.644Z,14.10
2018-04-19T20:20:28.434Z,14.00
2018-04-19T20:22:56.248Z,14.00
2018-04-19T20:25:24.579Z,13.90
2018-04-19T20:27:53.056Z,13.90
2018-04-19T20:30:20.872Z,13.80
2018-04-19T20:32:48.711Z,13.80
2018-04-19T20:35:16.524Z,13.80
2018-04-19T20:37:44.391Z,13.70
2018-04-19T20:40:12.940Z,13.70
2018-04-19T20:42:40.511Z,13.60
2018-04-19T20:45:09.824Z,13.50
2018-04-19T20:47:38.136Z,13.50
2018-04-19T20:50:06.034Z,13.50
2018-04-19T20:52:33.849Z,13.50
2018-04-19T20:55:01.716Z,13.40
2018-04-19T20:57:29.374Z,13.40
2018-04-19T20:59:57.271Z,13.40
2018-04-19T21:02:25.083Z,13.30
2018-04-19T21:04:53.709Z,13.20
2018-04-19T21:07:21.317Z,13.20
2018-04-19T21:09:49.136Z,13.20
2018-04-19T21:12:16.956Z,13.10
2018-04-19T21:14:44.820Z,13.10
2018-04-19T21:17:12.679Z,13.10
2018-04-19T21:19:40.232Z,13.00
2018-04-19T21:22:08.228Z,13.00
2018-04-19T21:24:36.007Z,13.00
2018-04-19T21:27:04.628Z,12.90
2018-04-19T21:29:32.408Z,12.90
2018-04-19T21:32:00.574Z,12.90
2018-04-19T21:34:29.031Z,12.90
2018-04-19T21:36:58.050Z,12.80
2018-04-19T21:39:26.635Z,12.80
2018-04-19T21:41:54.224Z,12.80
2018-04-19T21:44:22.057Z,12.80
2018-04-19T21:46:49.857Z,12.80
2018-04-19T21:49:17.655Z,12.70
2018-04-19T21:51:45.208Z,12.70
2018-04-19T21:54:13.289Z,12.70
2018-04-19T21:56:41.109Z,12.70
2018-04-19T21:59:08.956Z,12.70
2018-04-19T22:01:36.871Z,12.70
2018-04-19T22:04:05.495Z,12.60
2018-04-19T22:06:33.164Z,12.60
2018-04-19T22:09:01.067Z,12.60
2018-04-19T22:11:29.586Z,12.60
2018-04-19T22:13:58.229Z,12.50
2018-04-19T22:16:25.786Z,12.50
2018-04-19T22:18:53.658Z,12.50
2018-04-19T22:21:21.217Z,12.50
2018-04-19T22:23:48.779Z,12.40
2018-04-19T22:26:17.584Z,12.40
2018-04-19T22:28:45.416Z,12.40
2018-04-19T22:31:13.302Z,12.40
2018-04-19T22:33:41.540Z,12.30
2018-04-19T22:36:09.662Z,12.30
2018-04-19T22:38:38.258Z,12.20
2018-04-19T22:41:06.048Z,12.20
2018-04-19T22:43:33.871Z,12.20
2018-04-19T22:46:03.790Z,12.10
2018-04-19T22:48:32.344Z,12.10
2018-04-19T22:51:00.489Z,12.10
2018-04-19T22:53:32.002Z,12.10
2018-04-19T22:55:59.930Z,12.00
2018-04-19T22:58:28.510Z,12.00
2018-04-19T23:00:56.424Z,12.00
2018-04-19T23:03:25.258Z,11.90
2018-04-19T23:05:53.178Z,11.90
2018-04-19T23:08:21.107Z,11.90
2018-04-19T23:10:48.912Z,11.90
2018-04-19T23:13:16.853Z,11.90
2018-04-19T23:15:44.617Z,11.80
2018-04-19T23:18:12.655Z,11.80
2018-04-19T23:20:42.174Z,11.70
2018-04-19T23:23:10.036Z,11.70
2018-04-19T23:25:38.725Z,11.60
2018-04-19T23:28:06.739Z,11.60
2018-04-19T23:30:34.629Z,11.60
2018-04-19T23:33:02.561Z,11.60
2018-04-19T23:35:31.290Z,11.50
2018-04-19T23:37:59.133Z,11.50
2018-04-19T23:40:27.816Z,11.50
2018-04-19T23:42:56.129Z,11.40
2018-04-19T23:45:24.070Z,11.40
2018-04-19T23:47:51.934Z,11.40
2018-04-19T23:50:20.515Z,11.30
2018-04-19T23:52:49.103Z,11.30
2018-04-19T23:55:19.352Z,11.30
2018-04-19T23:57:47.236Z,11.30
